Nearby METAR Reports

 

KBMG - Bloomington, Indiana, USA
Distance from station: SSE 11mi, 18km
Updated: Thu, 25-Jul-2024 1:53am EDT
Few Clouds
Few Clouds
 Wind from calm
Wind: Calm
Temperature: 66°F, 19°C
Dew Point: 63°F, 17°C
Humidity: 88%
Barometer: 30.16 inHg, 1021.3 hPa
Clouds: Few Clouds
Visibility: 10 miles, 16 km
Cloud details: Few Clouds 4400 ft
Few Clouds 5500 ft
2024/07/25 05:53 KBMG 250553Z AUTO 00000KT 10SM FEW044 FEW055 19/17 A3016 RMK AO2 SLP205 T01890172 10222 20183 58001
KGPC - Greencastle, Indiana, USA
Distance from station: NNW 24mi, 39km
Updated: Thu, 25-Jul-2024 2:15am EDT
Mist, Mostly cloudy
Mist, Mostly cloudy
 Wind from calm
Wind: Calm
Temperature: 64°F, 18°C
Dew Point: 64°F, 18°C
Humidity: 100%
Barometer: 30.18 inHg, 1022 hPa
Summary: Mist
Clouds: Mostly cloudy
Visibility: 5 miles, 8 km
Cloud details: Mostly cloudy 4600 ft
Mostly cloudy 5000 ft
Mostly cloudy 6000 ft
2024/07/25 06:15 KGPC 250615Z AUTO 00000KT 5SM BR BKN046 BKN050 BKN060 18/18 A3018 RMK AO2 T01810180
 
KHUF - Terre Haute, Indiana, USA
Distance from station: WNW 34mi, 54km
Updated: Thu, 25-Jul-2024 1:53am EDT
Few Clouds
Few Clouds
 Wind from calm
Wind: Calm
Temperature: 66°F, 19°C
Dew Point: 66°F, 19°C
Humidity: 100%
Barometer: 30.16 inHg, 1021.3 hPa
Clouds: Few Clouds
Visibility: 9 miles, 14 km
Cloud details: Few Clouds 5000 ft
2024/07/25 05:53 KHUF 250553Z 00000KT 9SM FEW050 19/19 A3016 RMK AO2 SLP207 T01890189 10222 20189 50002
KIND - Indianapolis, Indiana, USA
Distance from station: NE 36mi, 58km
Updated: Thu, 25-Jul-2024 1:54am EDT
Few Clouds
Few Clouds
 Wind from calm
Wind: Calm
Temperature: 68°F, 20°C
Dew Point: 64°F, 18°C
Humidity: 88%
Barometer: 30.17 inHg, 1021.7 hPa
Clouds: Few Clouds
Visibility: 9 miles, 14 km
Cloud details: Few Clouds 6500 ft
2024/07/25 05:54 KIND 250554Z 00000KT 9SM FEW065 20/18 A3017 RMK AO2 SLP212 60000 T02000183 10211 20200 50002
 
KHFY - Indianapolis, Indiana, USA
Distance from station: NE 40mi, 65km
Updated: Wed, 24-Jul-2024 8:15pm EDT
NOT Current
Overcast
Overcast
 Wind from WNW
Wind: WNW 5 mph, 7 km/h
Temperature: 70°F, 21°C
Dew Point: 66°F, 19°C
Humidity: 88%
Barometer: 30.16 inHg, 1021.3 hPa
Clouds: Overcast
Visibility: 5 miles, 8 km
Cloud details: Partly cloudy 3800 ft
Partly cloudy 5500 ft
Overcast 9000 ft
2024/07/25 00:15 KHFY 250015Z AUTO 29004KT 5SM SCT038 SCT055 OVC090 21/19 A3016 RMK AO2 T02130188
KBAK - Columbus/Balkala, Indiana, USA
Distance from station: E 43mi, 69km
Updated: Wed, 24-Jul-2024 9:45pm EDT
NOT Current
Clear
Clear
 Wind from calm
Wind: Calm
Temperature: 68°F, 20°C
Dew Point: 68°F, 20°C
Humidity: 100%
Barometer: 30.17 inHg, 1021.7 hPa
Clouds: Clear
Visibility: 10 miles, 16 km
2024/07/25 01:45 KBAK 250145Z 00000KT 10SM CLR 20/20 A3017 RMK LAST
 
KEYE - Indianapolis, Indiana, USA
Distance from station: NNE 43mi, 69km
Updated: Thu, 25-Jul-2024 2:16am EDT
Mist, Few clouds
Mist, Few clouds
 Wind from calm
Wind: Calm
Temperature: 68°F, 20°C
Dew Point: 66°F, 19°C
Humidity: 94%
Barometer: 30.17 inHg, 1021.7 hPa
Summary: Mist
Clouds: Few Clouds
Visibility: 1 mile, 2 km
Cloud details: Few Clouds 5000 ft
2024/07/25 06:16 KEYE 250616Z AUTO 00000KT 1SM BR FEW050 20/19 A3017 RMK AO2 T02000189
KDCY - Daviess County, Indiana, USA
Distance from station: SSW 47mi, 76km
Updated: Thu, 25-Jul-2024 2:15am EDT
Clear
Clear
 Wind from calm
Wind: Calm
Temperature: 66°F, 19°C
Dew Point: 64°F, 18°C
Humidity: 94%
Barometer: 30.15 inHg, 1021 hPa
Clouds: Clear
Visibility: 10 miles, 16 km
2024/07/25 06:15 KDCY 250615Z AUTO 00000KT 10SM CLR 19/18 A3015 RMK AO2 T01940179
 
KCFJ - Crawfordsville, Indiana, USA
Distance from station: NNW 49mi, 78km
Updated: Thu, 25-Jul-2024 2:15am EDT
Mist, Overcast
Mist, Overcast
 Wind from calm
Wind: Calm
Temperature: 61°F, 16°C
Dew Point: 61°F, 16°C
Humidity: 100%
Barometer: 30.18 inHg, 1022 hPa
Summary: Mist
Clouds: Overcast
Visibility: 3/4 mile, 1.2 km
Cloud details: Overcast 200 ft
2024/07/25 06:15 KCFJ 250615Z AUTO 00000KT 3/4SM BR OVC002 16/16 A3018 RMK AO2 T01640164